Time;durP1;ratioP1;P1;durP2;ratioP2;P2;SDS_P1;SDS_P2;PMS_P1;PMS_P2;Temp;Humidity;BMP_temperature;BMP_pressure;BME280_temperature;BME280_humidity;BME280_pressure;Samples;Min_cycle;Max_cycle;Signal;HPM_P1;HPM_P2
2022/08/04 00:10:35;;;;;;;14.50;9.00;;;;;;;21.64;76.28;100656.10;680130;1277;138708;-84
2022/08/04 00:25:40;;;;;;;11.60;6.80;;;;;;;21.41;76.19;100668.38;679442;1278;139984;-84
2022/08/04 00:41:11;;;;;;;12.80;8.70;;;;;;;21.25;76.46;100665.42;680055;1277;140617;-84
2022/08/04 00:56:42;;;;;;;17.50;10.30;;;;;;;21.08;77.99;100660.64;680308;1277;138938;-83
2022/08/04 01:11:59;;;;;;;14.90;8.90;;;;;;;20.86;78.84;100665.93;680153;1277;139687;-83
2022/08/04 01:27:11;;;;;;;14.60;8.70;;;;;;;20.70;79.32;100670.56;680006;1277;138977;-84
2022/08/04 01:42:19;;;;;;;12.50;8.20;;;;;;;20.56;80.19;100665.66;680147;1277;138915;-83
2022/08/04 01:57:36;;;;;;;9.90;6.80;;;;;;;20.48;80.70;100659.71;679921;1277;139925;-83
2022/08/04 02:12:54;;;;;;;12.60;8.60;;;;;;;20.36;81.02;100653.07;679637;1277;139152;-83
2022/08/04 02:28:54;;;;;;;13.90;9.10;;;;;;;20.21;82.02;100646.90;679161;1277;140327;-83
2022/08/04 02:44:02;;;;;;;17.30;11.00;;;;;;;20.15;82.70;100647.54;678170;1277;140075;-83
2022/08/04 02:59:10;;;;;;;18.10;11.40;;;;;;;20.12;83.16;100635.23;679959;1275;139389;-84
2022/08/04 03:14:25;;;;;;;18.00;10.60;;;;;;;20.16;83.46;100637.06;679866;1277;327023;-84
2022/08/04 03:29:46;;;;;;;18.00;10.70;;;;;;;20.26;83.89;100636.48;679272;1277;138975;-84
2022/08/04 03:45:07;;;;;;;14.20;10.20;;;;;;;20.41;83.79;100646.77;680144;1277;140781;-82
2022/08/04 04:01:13;;;;;;;12.60;9.30;;;;;;;20.60;84.13;100653.16;680259;1277;140858;-82
2022/08/04 04:16:41;;;;;;;16.20;9.70;;;;;;;20.77;84.50;100666.81;679466;1277;139383;-85
2022/08/04 04:32:10;;;;;;;15.70;8.30;;;;;;;21.04;84.22;100676.60;680009;1277;139142;-83
2022/08/04 04:47:26;;;;;;;13.20;8.50;;;;;;;21.44;83.90;100669.30;680113;1277;139576;-82
2022/08/04 05:03:04;;;;;;;13.20;8.50;;;;;;;22.10;82.93;100670.01;680012;1277;139650;-83
2022/08/04 05:18:18;;;;;;;10.20;7.70;;;;;;;22.62;83.03;100677.33;679160;1277;139598;-82
2022/08/04 05:33:25;;;;;;;15.00;8.10;;;;;;;23.43;82.06;100676.53;680164;1277;140797;-82
2022/08/04 05:48:32;;;;;;;13.30;8.50;;;;;;;24.13;81.21;100682.39;680350;1277;140018;-83
2022/08/04 06:03:37;;;;;;;14.60;10.40;;;;;;;24.63;80.99;100681.35;680216;1277;139528;-83
2022/08/04 06:18:44;;;;;;;9.90;8.60;;;;;;;25.32;79.46;100689.48;680185;1277;139213;-82
2022/08/04 06:34:10;;;;;;;9.80;8.10;;;;;;;26.16;77.32;100695.49;679529;1277;138654;-84
2022/08/04 06:49:14;;;;;;;10.50;9.50;;;;;;;26.91;75.31;100685.23;679808;1277;138687;-84
2022/08/04 07:04:18;;;;;;;11.60;10.30;;;;;;;27.81;73.45;100685.15;679690;1276;140472;-83
2022/08/04 07:19:21;;;;;;;9.30;8.30;;;;;;;28.61;70.90;100687.46;679779;1277;139634;-83
2022/08/04 07:34:26;;;;;;;6.60;5.80;;;;;;;29.43;68.95;100674.04;679746;1275;138680;-83
2022/08/04 07:49:35;;;;;;;9.40;6.10;;;;;;;30.79;66.18;100670.81;679876;1275;138390;-83
2022/08/04 08:04:58;;;;;;;6.00;5.40;;;;;;;31.65;63.51;100670.72;679781;1276;138472;-84
2022/08/04 08:20:02;;;;;;;6.00;5.20;;;;;;;32.55;61.24;100666.05;679753;1277;138468;-83
2022/08/04 08:35:05;;;;;;;5.20;4.80;;;;;;;33.22;58.89;100662.50;678678;1277;137977;-84
2022/08/04 08:50:29;;;;;;;6.00;5.00;;;;;;;33.79;57.53;100660.58;679715;1277;138291;-84
2022/08/04 09:06:04;;;;;;;6.70;6.10;;;;;;;34.10;55.65;100667.88;679648;1277;138986;-84
2022/08/04 09:21:55;;;;;;;6.50;4.70;;;;;;;33.69;52.81;100668.06;679688;1275;139358;-83
2022/08/04 09:37:23;;;;;;;9.80;5.10;;;;;;;33.85;51.32;100663.50;679583;1277;138079;-83
2022/08/04 09:52:42;;;;;;;6.70;5.40;;;;;;;33.97;51.50;100656.64;679631;1277;138117;-83
2022/08/04 10:08:21;;;;;;;5.80;4.70;;;;;;;34.22;50.95;100645.63;679803;1275;139788;-84
2022/08/04 10:23:43;;;;;;;5.30;4.80;;;;;;;34.16;50.39;100640.84;679551;1276;139049;-83
2022/08/04 10:39:11;;;;;;;5.80;5.10;;;;;;;34.19;49.65;100632.71;679497;1276;139793;-83
2022/08/04 10:54:46;;;;;;;6.20;5.10;;;;;;;34.78;49.33;100627.45;679597;1277;138571;-83
2022/08/04 11:09:51;;;;;;;7.10;4.40;;;;;;;35.44;48.62;100621.30;679697;1276;138854;-82
2022/08/04 11:25:08;;;;;;;4.90;4.50;;;;;;;35.57;47.60;100615.66;679801;1277;138078;-84
2022/08/04 11:40:22;;;;;;;5.00;4.30;;;;;;;35.10;46.60;100612.00;678696;1277;138958;-82
2022/08/04 11:55:29;;;;;;;5.20;4.60;;;;;;;35.81;45.63;100604.79;679447;1277;22593;-81
2022/08/04 12:11:11;;;;;;;5.20;4.80;;;;;;;35.92;46.10;100599.63;679961;1275;22676;-80
2022/08/04 12:26:22;;;;;;;4.50;4.10;;;;;;;36.06;45.84;100591.01;679927;1277;22608;-82
2022/08/04 12:41:32;;;;;;;5.40;4.90;;;;;;;36.62;44.15;100586.54;679027;1277;138246;-81
2022/08/04 12:56:39;;;;;;;7.50;5.20;;;;;;;36.41;44.60;100582.73;679951;1276;22588;-82
2022/08/04 13:11:48;;;;;;;5.70;4.80;;;;;;;36.51;44.42;100577.38;679580;1277;22581;-83
2022/08/04 13:26:57;;;;;;;5.60;4.40;;;;;;;36.44;44.79;100560.30;679440;1277;23082;-82
2022/08/04 13:42:09;;;;;;;8.10;4.70;;;;;;;36.39;44.65;100548.53;679508;1277;22562;-82
2022/08/04 13:57:28;;;;;;;6.70;4.90;;;;;;;36.68;44.30;100543.86;679563;1277;23310;-81
2022/08/04 14:12:32;;;;;;;8.70;4.80;;;;;;;36.87;44.02;100530.36;680001;1277;22550;-82
2022/08/04 14:27:49;;;;;;;4.90;4.40;;;;;;;36.79;44.22;100518.13;679942;1277;23067;-81
2022/08/04 14:42:53;;;;;;;6.70;6.00;;;;;;;42.62;39.95;100515.91;679728;1276;22449;-80
2022/08/04 14:57:59;;;;;;;7.70;6.80;;;;;;;41.62;38.04;100499.63;679782;1277;22401;-81
2022/08/04 15:13:22;;;;;;;5.50;4.30;;;;;;;36.75;42.90;100486.89;678081;1278;1332345;-80
2022/08/04 15:28:28;;;;;;;6.00;5.30;;;;;;;35.85;44.29;100476.80;680042;1277;22441;-79
2022/08/04 15:43:59;;;;;;;5.20;4.70;;;;;;;35.54;45.20;100472.42;679235;1277;139456;-80
2022/08/04 15:59:02;;;;;;;8.30;5.20;;;;;;;34.99;46.20;100466.30;680110;1277;138304;-80
2022/08/04 16:14:10;;;;;;;5.30;4.70;;;;;;;34.85;46.78;100456.80;678523;1279;139348;-79
2022/08/04 16:29:22;;;;;;;5.50;4.40;;;;;;;34.43;47.62;100452.63;679166;1277;139063;-80
2022/08/04 16:44:40;;;;;;;5.80;4.80;;;;;;;34.16;48.65;100455.95;679092;1277;138310;-80
2022/08/04 16:59:55;;;;;;;8.60;5.10;;;;;;;33.52;49.51;100452.97;678224;1279;139793;-81
2022/08/04 17:15:01;;;;;;;5.90;4.40;;;;;;;33.00;50.38;100455.89;680032;1277;138094;-81
2022/08/04 17:30:24;;;;;;;6.20;4.50;;;;;;;32.58;51.30;100450.16;679798;1277;138074;-82
2022/08/04 17:45:28;;;;;;;13.20;6.60;;;;;;;31.98;53.14;100461.27;680009;1277;137928;-82
2022/08/04 18:01:01;;;;;;;6.50;4.40;;;;;;;31.49;54.14;100469.03;679225;1277;138829;-82
2022/08/04 18:16:24;;;;;;;12.50;5.20;;;;;;;30.71;55.54;100471.90;679356;1277;139554;-82
2022/08/04 18:31:29;;;;;;;13.00;5.20;;;;;;;30.10;57.14;100478.89;678853;1279;139817;-83
2022/08/04 18:46:38;;;;;;;16.60;5.40;;;;;;;29.34;58.51;100487.32;680064;1277;139298;-82
2022/08/04 19:01:55;;;;;;;9.70;6.40;;;;;;;28.37;60.69;100484.84;679713;1277;138489;-82
2022/08/04 19:17:18;;;;;;;10.30;6.60;;;;;;;27.84;62.31;100493.81;679836;1277;139066;-82
2022/08/04 19:32:42;;;;;;;11.80;6.50;;;;;;;27.44;63.11;100495.12;679303;1277;139734;-83
2022/08/04 19:47:50;;;;;;;10.40;6.20;;;;;;;27.04;64.16;100496.69;678830;1277;138984;-82
2022/08/04 20:03:15;;;;;;;12.10;8.50;;;;;;;26.81;65.09;100503.55;679123;1277;138630;-83
2022/08/04 20:18:23;;;;;;;11.40;8.50;;;;;;;26.38;66.57;100504.88;678304;1278;138570;-82
2022/08/04 20:33:39;;;;;;;20.80;8.90;;;;;;;26.03;67.81;100504.17;679205;1277;138125;-83
2022/08/04 20:48:51;;;;;;;14.10;8.90;;;;;;;25.78;68.48;100502.87;679820;1277;139301;-83
2022/08/04 21:19:31;;;;;;;11.40;8.80;;;;;;;25.43;69.43;100514.56;679697;1277;140036;-83
2022/08/04 21:34:39;;;;;;;13.80;8.90;;;;;;;25.16;70.72;100513.27;679259;1278;138896;-83
2022/08/04 21:49:43;;;;;;;12.50;9.10;;;;;;;24.81;71.87;100509.42;679957;1276;139236;-83
2022/08/04 22:04:59;;;;;;;13.30;8.20;;;;;;;24.53;72.27;100519.14;679870;1277;138779;-83
2022/08/04 22:20:03;;;;;;;10.40;7.80;;;;;;;24.46;72.35;100516.83;679710;1277;139898;-83
2022/08/04 22:35:06;;;;;;;15.10;7.90;;;;;;;24.31;72.48;100518.41;679348;1278;139642;-83
2022/08/04 22:50:30;;;;;;;11.50;7.60;;;;;;;24.06;73.68;100517.48;679311;1278;140284;-83
2022/08/04 23:05:34;;;;;;;10.40;7.10;;;;;;;23.87;73.87;100517.10;679900;1277;138136;-83
2022/08/04 23:20:37;;;;;;;9.50;7.00;;;;;;;23.64;74.83;100511.70;679690;1277;139428;-82
2022/08/04 23:35:41;;;;;;;10.70;6.90;;;;;;;23.52;75.31;100502.67;680080;1275;137852;-83
2022/08/04 23:50:44;;;;;;;7.00;6.20;;;;;;;23.34;75.02;100494.63;679940;1277;139405;-82
